»·PEaware :: MARCO55 LSGS-LIMC

MARCO55 :: LSGS-LIMC

FLIGHT INFORMATION

Flight Status: Arrived
Operator: Unknown
More flights by this operator :: More flights under this callsign
Pilot: Anonymous 2822 (2822)
Aircraft: ROCKWELL F-100 SUPER SABRE
(SSAB)
More flights by this aircraft type
Origin: LSGS Sion
Switzerland
Destination: LIMC Malpensa
Italy
More flights between these airports :: More routes between these airports
Route: MAL
File this flight plan on PilotEdge
Remarks:
Altitude:
(Current/Filed)
3,000ft
Speed:
(Current/Filed)
300kts
Departed: 11-Jun-17 05:57 PM
Arrived: 11-Jun-17 06:57 PM
Distance/Time
Traveled:
69nm/1:00
Distance/Time
To Go:
Arrived

Flight Plot

Page will automatically refresh every two minutes.


Map Options




Map Legend


Flown Route
Filed Route
Departure Airport
Arrival Airport
Navaid (VOR, NDB)
Fix

Horizontal Profiles

Position Reports

Time Latitude Longitude Heading Altitude Ground
Speed
11-Jun-17 17:52 46.222885 7.339069 164 1586ft 0kts
11-Jun-17 17:53 46.222884 7.339070 164 1586ft 0kts
11-Jun-17 17:54 46.222882 7.339071 164 1586ft 0kts
11-Jun-17 17:55 46.222880 7.339072 164 1586ft 0kts
11-Jun-17 17:56 46.222878 7.339072 164 1586ft 0kts
11-Jun-17 17:57 46.222876 7.339073 164 1586ft 0kts
11-Jun-17 17:58 46.221994 7.339405 225 1586ft 5kts
11-Jun-17 17:59 46.213743 7.300979 252 1678ft 260kts
11-Jun-17 18:00 46.280367 7.233011 332 4658ft 469kts
11-Jun-17 18:01 46.363576 7.250097 11 5444ft 569kts
11-Jun-17 18:02 46.296760 7.334849 199 5444ft 527kts
11-Jun-17 18:03 46.154951 7.316950 180 5018ft 507kts
11-Jun-17 18:04 46.102625 7.329144 110 7858ft 415kts
11-Jun-17 18:05 46.199384 7.414230 353 2585ft 581kts
11-Jun-17 18:06 46.193766 7.414345 173 2632ft 563kts
11-Jun-17 18:07 46.071613 7.511407 152 7261ft 414kts
11-Jun-17 18:08 46.124191 7.570042 0 7838ft 541kts
11-Jun-17 18:09 46.172298 7.573429 32 5910ft 558kts
11-Jun-17 18:10 46.303331 7.593416 76 2289ft 627kts
11-Jun-17 18:11 46.245849 7.711245 174 5725ft 536kts
11-Jun-17 18:12 46.158780 7.739401 103 11717ft 312kts
11-Jun-17 18:13 46.115420 7.787710 8 13118ft 248kts
11-Jun-17 18:14 46.003066 7.733380 208 6125ft 490kts
11-Jun-17 18:15 46.067139 7.777269 10 4990ft 561kts
11-Jun-17 18:16 46.155997 7.697876 339 8197ft 530kts
11-Jun-17 18:17 46.306657 7.689502 277 2810ft 593kts
11-Jun-17 18:18 46.290467 7.631737 219 3399ft 541kts
11-Jun-17 18:19 46.302037 7.575077 80 2028ft 543kts
11-Jun-17 18:20 46.311671 7.790768 80 11446ft 256kts
11-Jun-17 18:21 46.306930 7.745420 261 2233ft 224kts
11-Jun-17 18:22 46.296585 7.648075 243 2818ft 378kts
11-Jun-17 18:23 46.208476 7.670300 150 12726ft 402kts
11-Jun-17 18:24 46.099768 7.755392 151 17378ft 517kts
11-Jun-17 18:25 45.973269 7.849194 153 17463ft 510kts
11-Jun-17 18:26 45.880133 7.991487 117 17454ft 504kts
11-Jun-17 18:27 45.814690 8.168583 118 17516ft 502kts
11-Jun-17 18:28 45.749231 8.345075 113 17535ft 502kts
11-Jun-17 18:29 45.694221 8.527911 108 16952ft 456kts
11-Jun-17 18:30 45.649360 8.671188 114 4215ft 279kts
11-Jun-17 18:31 45.593788 8.705817 153 2521ft 215kts
11-Jun-17 18:32 45.620312 8.736148 349 799ft 169kts
11-Jun-17 18:33 45.657709 8.758502 165 2296ft 257kts
11-Jun-17 18:34 45.601155 8.774436 191 2411ft 185kts
11-Jun-17 18:35 45.620559 8.736185 348 776ft 172kts
11-Jun-17 18:36 45.656314 8.756121 171 2408ft 249kts
11-Jun-17 18:37 45.597857 8.771607 171 2435ft 182kts
11-Jun-17 18:38 45.614562 8.737895 349 797ft 167kts
11-Jun-17 18:39 45.669468 8.752341 112 2114ft 309kts
11-Jun-17 18:40 45.605930 8.772888 174 2608ft 193kts
11-Jun-17 18:41 45.610460 8.738963 348 822ft 168kts
11-Jun-17 18:42 45.664786 8.741103 97 1749ft 291kts
11-Jun-17 18:43 45.604961 8.764549 169 2499ft 195kts
11-Jun-17 18:44 45.619335 8.736605 349 783ft 155kts
11-Jun-17 18:45 45.659394 8.757712 164 2221ft 274kts
11-Jun-17 18:46 45.596344 8.778782 170 2336ft 227kts
11-Jun-17 18:47 45.601602 8.741411 348 961ft 188kts
11-Jun-17 18:48 45.661260 8.731679 44 1492ft 296kts
11-Jun-17 18:49 45.611364 8.772131 170 2519ft 218kts
11-Jun-17 18:50 45.594441 8.743377 348 1092ft 201kts
11-Jun-17 18:51 45.652767 8.727456 348 889ft 349kts
11-Jun-17 18:52 45.664744 8.724424 168 1103ft 493kts
11-Jun-17 18:53 45.616479 8.749309 86 1395ft 500kts
11-Jun-17 18:54 45.609273 8.717626 351 1063ft 631kts
11-Jun-17 18:55 45.662383 8.719563 94 20759ft 49kts
11-Jun-17 18:56 45.610527 8.780632 14 2526ft 337kts
11-Jun-17 18:57 45.674187 8.766396 311 2327ft 205kts
11-Jun-17 18:58 45.646043 8.729147 169 825ft 166kts
11-Jun-17 18:59 45.624912 8.734915 206 772ft 12kts
11-Jun-17 19:00 45.625055 8.733393 287 772ft 0kts
11-Jun-17 19:01 45.625056 8.733389 287 772ft 0kts
11-Jun-17 19:02 45.625057 8.733387 287 772ft 0kts

Navigation Log

Ident Type
1. LSGS Airport
2. MAL Navaid
3. LIMC Airport